createdAt,value
2018-09-27T00:02:22.268Z,16.00
2018-09-27T00:04:49.679Z,16.00
2018-09-27T00:07:17.055Z,15.90
2018-09-27T00:09:44.469Z,15.90
2018-09-27T00:12:11.918Z,15.90
2018-09-27T00:14:39.318Z,15.90
2018-09-27T00:17:06.769Z,15.90
2018-09-27T00:19:34.214Z,15.90
2018-09-27T00:22:01.613Z,15.90
2018-09-27T00:24:29.033Z,15.90
2018-09-27T00:26:56.443Z,15.80
2018-09-27T00:29:23.847Z,15.80
2018-09-27T00:31:51.293Z,15.80
2018-09-27T00:34:18.709Z,15.80
2018-09-27T00:36:46.145Z,15.80
2018-09-27T00:39:13.957Z,15.70
2018-09-27T00:41:41.507Z,15.70
2018-09-27T00:44:09.020Z,15.60
2018-09-27T00:46:36.424Z,15.60
2018-09-27T00:49:03.872Z,15.60
2018-09-27T00:51:31.374Z,15.50
2018-09-27T00:53:59.114Z,15.50
2018-09-27T00:56:26.536Z,15.50
2018-09-27T00:58:54.023Z,15.50
2018-09-27T01:01:21.398Z,15.50
2018-09-27T01:03:48.778Z,15.50
2018-09-27T01:06:16.254Z,15.40
2018-09-27T01:08:43.666Z,15.40
2018-09-27T01:11:11.101Z,15.40
2018-09-27T01:13:38.744Z,15.40
2018-09-27T01:16:06.700Z,15.40
2018-09-27T01:18:34.118Z,15.40
2018-09-27T01:21:01.535Z,15.40
2018-09-27T01:23:28.929Z,15.40
2018-09-27T01:25:56.394Z,15.40
2018-09-27T01:28:23.803Z,15.40
2018-09-27T01:30:51.210Z,15.40
2018-09-27T01:33:18.630Z,15.30
2018-09-27T01:35:46.281Z,15.40
2018-09-27T01:38:13.708Z,15.30
2018-09-27T01:40:41.103Z,15.30
2018-09-27T01:43:08.487Z,15.40
2018-09-27T01:45:35.919Z,15.40
2018-09-27T01:48:03.306Z,15.40
2018-09-27T01:50:30.770Z,15.40
2018-09-27T01:52:58.167Z,15.40
2018-09-27T01:55:25.804Z,15.40
2018-09-27T01:57:53.241Z,15.40
2018-09-27T02:00:20.690Z,15.40
2018-09-27T02:02:48.097Z,15.40
2018-09-27T02:05:15.558Z,15.40
2018-09-27T02:07:42.951Z,15.40
2018-09-27T02:10:10.381Z,15.40
2018-09-27T02:12:37.767Z,15.40
2018-09-27T02:15:05.245Z,15.40
2018-09-27T02:17:32.646Z,15.40
2018-09-27T02:20:00.067Z,15.40
2018-09-27T02:22:27.476Z,15.40
2018-09-27T02:24:54.871Z,15.40
2018-09-27T02:27:22.295Z,15.40
2018-09-27T02:29:49.715Z,15.40
2018-09-27T02:32:17.099Z,15.40
2018-09-27T02:34:44.507Z,15.40
2018-09-27T02:37:11.951Z,15.30
2018-09-27T02:39:39.377Z,15.30
2018-09-27T02:42:06.821Z,15.30
2018-09-27T02:44:34.219Z,15.30
2018-09-27T02:47:01.626Z,15.30
2018-09-27T02:49:29.065Z,15.30
2018-09-27T02:51:56.465Z,15.20
2018-09-27T02:54:23.931Z,15.20
2018-09-27T02:56:51.355Z,15.20
2018-09-27T02:59:18.778Z,15.20
2018-09-27T03:01:46.228Z,15.20
2018-09-27T03:04:13.619Z,15.20
2018-09-27T03:06:41.022Z,15.20
2018-09-27T03:09:09.814Z,15.10
2018-09-27T03:11:37.247Z,15.10
2018-09-27T03:14:04.652Z,15.10
2018-09-27T03:16:32.088Z,15.10
2018-09-27T03:18:59.490Z,15.10
2018-09-27T03:21:26.914Z,15.10
2018-09-27T03:23:54.314Z,15.10
2018-09-27T03:26:21.759Z,15.10
2018-09-27T03:28:49.184Z,15.10
2018-09-27T03:31:16.637Z,15.00
2018-09-27T03:33:44.059Z,15.00
2018-09-27T03:36:11.426Z,15.00
2018-09-27T03:38:38.874Z,15.00
2018-09-27T03:41:06.259Z,15.00
2018-09-27T03:43:33.691Z,15.00
2018-09-27T03:46:01.081Z,15.00
2018-09-27T03:48:28.554Z,15.00
2018-09-27T03:50:55.987Z,15.00
2018-09-27T03:53:23.450Z,15.00
2018-09-27T03:55:50.869Z,14.90
2018-09-27T03:58:18.305Z,14.90
2018-09-27T04:00:45.696Z,14.90
2018-09-27T04:03:13.138Z,14.90
2018-09-27T04:05:40.472Z,14.90
2018-09-27T04:08:07.954Z,14.80
2018-09-27T04:10:35.400Z,14.80
2018-09-27T04:13:02.806Z,14.80
2018-09-27T04:15:30.212Z,14.80
2018-09-27T04:17:57.614Z,14.80
2018-09-27T04:20:25.030Z,14.70
2018-09-27T04:22:52.482Z,14.70
2018-09-27T04:25:19.921Z,14.70
2018-09-27T04:27:47.354Z,14.70
2018-09-27T04:30:14.758Z,14.70
2018-09-27T04:32:42.186Z,14.70
2018-09-27T04:35:09.576Z,14.70
2018-09-27T04:37:37.009Z,14.60
2018-09-27T04:40:04.710Z,14.60
2018-09-27T04:42:32.123Z,14.60
2018-09-27T04:44:59.568Z,14.60
2018-09-27T04:47:27.000Z,14.40
2018-09-27T04:49:54.411Z,14.60
2018-09-27T04:52:21.837Z,14.60
2018-09-27T04:54:49.248Z,14.80
2018-09-27T04:57:16.901Z,14.60
2018-09-27T04:59:44.298Z,14.60
2018-09-27T05:02:11.737Z,14.60
2018-09-27T05:04:39.169Z,14.60
2018-09-27T05:07:06.662Z,14.60
2018-09-27T05:09:34.163Z,14.60
2018-09-27T05:12:01.549Z,14.60
2018-09-27T05:14:29.014Z,14.60
2018-09-27T05:16:56.430Z,14.60
2018-09-27T05:19:23.830Z,14.60
2018-09-27T05:21:51.248Z,14.60
2018-09-27T05:24:18.637Z,14.60
2018-09-27T05:26:46.048Z,14.70
2018-09-27T05:29:13.471Z,14.70
2018-09-27T05:31:40.898Z,14.70
2018-09-27T05:34:08.264Z,14.70
2018-09-27T05:36:35.660Z,14.70
2018-09-27T05:39:04.452Z,14.70
2018-09-27T05:41:31.855Z,14.80
2018-09-27T05:43:59.261Z,14.80
2018-09-27T05:46:26.702Z,14.80
2018-09-27T05:48:54.108Z,14.80
2018-09-27T05:51:21.500Z,14.80
2018-09-27T05:53:48.919Z,14.80
2018-09-27T05:56:16.328Z,14.80
2018-09-27T05:58:43.750Z,14.80
2018-09-27T06:01:11.166Z,14.80
2018-09-27T06:03:38.619Z,14.80
2018-09-27T06:06:05.979Z,14.90
2018-09-27T06:08:33.439Z,15.00
2018-09-27T06:11:01.224Z,14.90
2018-09-27T06:13:28.649Z,14.90
2018-09-27T06:16:01.554Z,14.90
2018-09-27T06:18:32.439Z,12.30
2018-09-27T06:20:59.881Z,14.10
2018-09-27T06:23:27.546Z,15.10
2018-09-27T06:25:55.018Z,15.10
2018-09-27T06:28:22.410Z,15.20
2018-09-27T06:30:49.826Z,15.30
2018-09-27T06:33:17.249Z,15.40
2018-09-27T06:35:44.694Z,15.40
2018-09-27T06:38:12.135Z,15.40
2018-09-27T06:40:39.647Z,15.50
2018-09-27T06:43:07.068Z,15.50
2018-09-27T06:45:34.469Z,15.60
2018-09-27T06:48:01.900Z,15.60
2018-09-27T06:50:29.325Z,15.70
2018-09-27T06:52:56.748Z,15.70
2018-09-27T06:55:24.325Z,15.80
2018-09-27T06:57:51.639Z,15.80
2018-09-27T07:00:19.082Z,15.90
2018-09-27T07:02:46.539Z,15.90
2018-09-27T07:05:13.950Z,16.00
2018-09-27T07:07:41.350Z,16.00
2018-09-27T07:10:08.768Z,16.10
2018-09-27T07:12:36.175Z,16.20
2018-09-27T07:15:03.673Z,16.20
2018-09-27T07:17:31.135Z,16.30
2018-09-27T07:19:58.608Z,16.30
2018-09-27T07:22:25.986Z,16.40
2018-09-27T07:24:53.449Z,16.40
2018-09-27T07:27:20.867Z,16.50
2018-09-27T07:29:48.314Z,16.60
2018-09-27T07:32:15.788Z,16.60
2018-09-27T07:34:43.200Z,16.70
2018-09-27T07:37:10.642Z,16.80
2018-09-27T07:39:38.078Z,16.90
2018-09-27T07:42:05.483Z,17.00
2018-09-27T07:44:32.890Z,17.10
2018-09-27T07:47:00.310Z,17.30
2018-09-27T07:49:27.804Z,17.50
2018-09-27T07:51:55.254Z,17.90
2018-09-27T07:54:22.871Z,18.20
2018-09-27T07:56:50.246Z,18.70
2018-09-27T07:59:17.680Z,19.20
2018-09-27T08:01:45.094Z,19.70
2018-09-27T08:04:12.553Z,20.20
2018-09-27T08:06:39.907Z,20.70
2018-09-27T08:09:08.271Z,21.20
2018-09-27T08:11:36.422Z,21.80
2018-09-27T08:14:03.817Z,22.30
2018-09-27T08:16:31.228Z,22.90
2018-09-27T08:18:58.620Z,23.40
2018-09-27T08:21:26.055Z,24.00
2018-09-27T08:23:53.498Z,24.60
2018-09-27T08:26:20.947Z,25.20
2018-09-27T08:28:48.390Z,25.80
2018-09-27T08:31:15.829Z,26.40
2018-09-27T08:33:43.291Z,27.10
2018-09-27T08:36:10.724Z,27.80
2018-09-27T08:38:38.216Z,28.60
2018-09-27T08:41:05.927Z,29.40
2018-09-27T08:43:33.371Z,30.40
2018-09-27T08:46:00.794Z,31.30
2018-09-27T08:48:28.227Z,32.20
2018-09-27T08:50:55.656Z,33.20
2018-09-27T08:53:23.073Z,34.10
2018-09-27T08:55:50.538Z,35.10
2018-09-27T08:58:17.922Z,36.00
2018-09-27T09:00:45.379Z,36.80
2018-09-27T09:03:12.798Z,37.70
2018-09-27T09:05:40.260Z,38.50
2018-09-27T09:08:07.762Z,39.30
2018-09-27T09:10:35.155Z,39.90
2018-09-27T09:13:02.556Z,40.70
2018-09-27T09:15:30.019Z,41.30
2018-09-27T09:17:57.392Z,42.00
2018-09-27T09:20:24.867Z,42.70
2018-09-27T09:22:52.641Z,43.30
2018-09-27T09:25:20.039Z,44.00
2018-09-27T09:27:47.481Z,44.50
2018-09-27T09:30:14.878Z,45.10
2018-09-27T09:32:42.541Z,45.60
2018-09-27T09:35:09.989Z,46.10
2018-09-27T09:37:37.390Z,46.50
2018-09-27T09:40:05.178Z,46.90
2018-09-27T09:42:32.584Z,47.20
2018-09-27T09:45:00.059Z,47.60
2018-09-27T09:47:27.542Z,47.90
2018-09-27T09:49:54.952Z,48.20
2018-09-27T09:52:22.380Z,48.40
2018-09-27T09:54:49.817Z,48.70
2018-09-27T09:57:17.234Z,48.90
2018-09-27T09:59:44.646Z,49.00
2018-09-27T10:02:12.058Z,49.10
2018-09-27T10:04:39.472Z,49.30
2018-09-27T10:07:06.882Z,49.50
2018-09-27T10:09:34.363Z,49.70
2018-09-27T10:12:01.776Z,49.90
2018-09-27T10:14:29.208Z,50.00
2018-09-27T10:16:56.610Z,50.10
2018-09-27T10:19:24.110Z,50.10
2018-09-27T10:21:51.665Z,50.20
2018-09-27T10:24:18.984Z,50.30
2018-09-27T10:26:46.430Z,50.30
2018-09-27T10:29:13.853Z,50.40
2018-09-27T10:31:41.268Z,50.50
2018-09-27T10:34:08.775Z,50.50
2018-09-27T10:36:36.162Z,50.60
2018-09-27T10:39:06.198Z,50.60
2018-09-27T10:41:33.634Z,50.70
2018-09-27T10:44:01.029Z,50.70
2018-09-27T10:46:28.435Z,50.80
2018-09-27T10:48:55.845Z,50.80
2018-09-27T10:51:23.346Z,50.90
2018-09-27T10:53:50.705Z,51.00
2018-09-27T10:56:18.135Z,51.10
2018-09-27T10:58:45.581Z,51.10
2018-09-27T11:01:12.994Z,51.10
2018-09-27T11:03:40.399Z,51.10
2018-09-27T11:06:07.903Z,51.10
2018-09-27T11:08:35.345Z,51.00
2018-09-27T11:11:02.860Z,50.90
2018-09-27T11:13:30.203Z,50.80
2018-09-27T11:15:57.623Z,50.70
2018-09-27T11:18:25.031Z,50.80
2018-09-27T11:20:52.449Z,50.70
2018-09-27T11:23:19.895Z,50.50
2018-09-27T11:25:47.321Z,50.40
2018-09-27T11:28:14.774Z,50.40
2018-09-27T11:30:42.258Z,50.30
2018-09-27T11:33:09.750Z,50.30
2018-09-27T11:35:37.112Z,50.30
2018-09-27T11:38:04.602Z,50.30
2018-09-27T11:40:32.012Z,50.40
2018-09-27T11:42:59.458Z,50.40
2018-09-27T11:45:26.862Z,50.40
2018-09-27T11:47:54.314Z,50.40
2018-09-27T11:50:21.795Z,50.30
2018-09-27T11:52:49.176Z,50.20
2018-09-27T11:55:16.582Z,49.90
2018-09-27T11:57:44.033Z,49.90
2018-09-27T12:00:11.514Z,49.90
2018-09-27T12:02:38.927Z,49.90
2018-09-27T12:05:06.433Z,49.90
2018-09-27T12:07:33.871Z,50.00
2018-09-27T12:10:01.580Z,50.10
2018-09-27T12:12:28.994Z,50.00
2018-09-27T12:14:56.521Z,50.00
2018-09-27T12:17:23.993Z,49.90
2018-09-27T12:19:51.422Z,49.90
2018-09-27T12:22:18.835Z,49.80
2018-09-27T12:24:46.317Z,49.80
2018-09-27T12:27:13.773Z,49.70
2018-09-27T12:29:41.218Z,49.80
2018-09-27T12:32:08.655Z,49.80
2018-09-27T12:34:36.139Z,49.90
2018-09-27T12:37:03.561Z,49.90
2018-09-27T12:39:31.028Z,50.00
2018-09-27T12:41:58.638Z,50.10
2018-09-27T12:44:25.880Z,50.10
2018-09-27T12:46:53.414Z,50.10
2018-09-27T12:49:20.792Z,50.10
2018-09-27T12:51:48.344Z,50.10
2018-09-27T12:54:15.696Z,50.10
2018-09-27T12:56:43.121Z,50.10
2018-09-27T12:59:10.556Z,50.00
2018-09-27T13:01:38.023Z,50.00
2018-09-27T13:04:05.515Z,50.00
2018-09-27T13:06:32.924Z,49.90
2018-09-27T13:09:00.441Z,49.80
2018-09-27T13:11:27.828Z,49.70
2018-09-27T13:13:55.231Z,49.60
2018-09-27T13:16:22.673Z,49.60
2018-09-27T13:18:50.228Z,49.50
2018-09-27T13:21:17.629Z,49.30
2018-09-27T13:23:45.067Z,49.20
2018-09-27T13:26:12.507Z,49.00
2018-09-27T13:28:40.059Z,48.90
2018-09-27T13:31:07.558Z,48.70
2018-09-27T13:33:35.027Z,48.70
2018-09-27T13:36:02.493Z,48.50
2018-09-27T13:38:29.909Z,48.40
2018-09-27T13:40:57.361Z,48.30
2018-09-27T13:43:24.751Z,48.10
2018-09-27T13:45:52.160Z,48.00
2018-09-27T13:48:19.756Z,47.90
2018-09-27T13:50:47.174Z,47.70
2018-09-27T13:53:14.642Z,47.60
2018-09-27T13:55:42.034Z,47.40
2018-09-27T13:58:09.458Z,47.20
2018-09-27T14:00:36.886Z,47.00
2018-09-27T14:03:04.413Z,46.90
2018-09-27T14:05:31.814Z,46.80
2018-09-27T14:07:59.236Z,46.50
2018-09-27T14:10:26.649Z,46.40
2018-09-27T14:12:54.080Z,46.20
2018-09-27T14:15:21.517Z,46.00
2018-09-27T14:17:48.996Z,45.70
2018-09-27T14:20:16.427Z,45.70
2018-09-27T14:22:43.881Z,45.40
2018-09-27T14:25:11.309Z,44.90
2018-09-27T14:27:38.778Z,44.40
2018-09-27T14:30:06.268Z,43.70
2018-09-27T14:32:33.724Z,42.90
2018-09-27T14:35:01.166Z,42.00
2018-09-27T14:37:28.686Z,41.20
2018-09-27T14:39:56.125Z,40.30
2018-09-27T14:42:23.558Z,39.50
2018-09-27T14:44:50.987Z,38.70
2018-09-27T14:47:18.391Z,37.90
2018-09-27T14:49:45.804Z,37.10
2018-09-27T14:52:13.259Z,36.40
2018-09-27T14:54:40.691Z,35.80
2018-09-27T14:57:08.190Z,35.10
2018-09-27T14:59:35.662Z,34.50
2018-09-27T15:02:03.063Z,33.90
2018-09-27T15:04:30.524Z,33.50
2018-09-27T15:06:57.978Z,33.00
2018-09-27T15:09:25.453Z,32.70
2018-09-27T15:11:52.829Z,32.50
2018-09-27T15:14:20.286Z,32.20
2018-09-27T15:16:47.749Z,32.10
2018-09-27T15:19:15.191Z,31.90
2018-09-27T15:21:42.635Z,31.90
2018-09-27T15:24:10.081Z,31.70
2018-09-27T15:26:37.561Z,31.60
2018-09-27T15:29:05.010Z,31.50
2018-09-27T15:31:32.481Z,31.40
2018-09-27T15:33:59.990Z,31.20
2018-09-27T15:36:27.557Z,31.00
2018-09-27T15:38:54.921Z,30.80
2018-09-27T15:41:22.393Z,30.60
2018-09-27T15:43:49.815Z,30.30
2018-09-27T15:46:17.299Z,30.10
2018-09-27T15:48:44.756Z,29.90
2018-09-27T15:51:12.211Z,29.60
2018-09-27T15:53:39.944Z,29.40
2018-09-27T15:56:07.516Z,29.20
2018-09-27T15:58:35.037Z,28.90
2018-09-27T16:01:02.560Z,28.70
2018-09-27T16:03:29.968Z,28.50
2018-09-27T16:05:57.378Z,28.40
2018-09-27T16:08:24.764Z,28.20
2018-09-27T16:10:52.339Z,28.00
2018-09-27T16:13:19.798Z,27.80
2018-09-27T16:15:47.429Z,27.70
2018-09-27T16:18:14.931Z,27.50
2018-09-27T16:20:42.364Z,27.40
2018-09-27T16:23:09.792Z,27.20
2018-09-27T16:25:37.260Z,27.10
2018-09-27T16:28:04.743Z,27.00
2018-09-27T16:30:32.174Z,26.90
2018-09-27T16:32:59.606Z,26.80
2018-09-27T16:35:27.078Z,26.70
2018-09-27T16:37:54.539Z,26.60
2018-09-27T16:40:21.999Z,26.40
2018-09-27T16:42:49.420Z,26.30
2018-09-27T16:45:16.838Z,26.20
2018-09-27T16:47:44.306Z,26.10
2018-09-27T16:50:11.976Z,26.00
2018-09-27T16:52:39.434Z,25.80
2018-09-27T16:55:06.932Z,25.80
2018-09-27T16:57:34.395Z,25.70
2018-09-27T17:00:01.837Z,25.60
2018-09-27T17:02:29.364Z,25.50
2018-09-27T17:04:56.804Z,25.30
2018-09-27T17:07:24.200Z,25.20
2018-09-27T17:09:51.639Z,25.10
2018-09-27T17:12:19.065Z,25.00
2018-09-27T17:14:46.519Z,24.90
2018-09-27T17:17:13.958Z,24.80
2018-09-27T17:19:41.420Z,24.70
2018-09-27T17:22:08.810Z,24.50
2018-09-27T17:24:36.609Z,24.50
2018-09-27T17:27:04.066Z,24.30
2018-09-27T17:29:31.546Z,24.20
2018-09-27T17:31:58.985Z,24.10
2018-09-27T17:34:26.465Z,24.10
2018-09-27T17:36:53.865Z,24.00
2018-09-27T17:39:21.307Z,23.90
2018-09-27T17:41:48.722Z,23.80
2018-09-27T17:44:16.144Z,23.70
2018-09-27T17:46:43.624Z,23.60
2018-09-27T17:49:11.007Z,23.50
2018-09-27T17:51:38.430Z,23.50
2018-09-27T17:54:05.966Z,23.40
2018-09-27T17:56:33.371Z,23.30
2018-09-27T17:59:00.823Z,23.20
2018-09-27T18:01:28.286Z,23.20
2018-09-27T18:03:55.687Z,23.10
2018-09-27T18:06:23.099Z,23.00
2018-09-27T18:08:50.572Z,23.00
2018-09-27T18:11:18.030Z,22.90
2018-09-27T18:13:45.516Z,22.80
2018-09-27T18:16:12.925Z,22.80
2018-09-27T18:18:40.361Z,22.70
2018-09-27T18:21:07.817Z,22.60
2018-09-27T18:23:35.214Z,22.60
2018-09-27T18:26:02.661Z,22.50
2018-09-27T18:28:30.182Z,22.50
2018-09-27T18:30:57.950Z,22.40
2018-09-27T18:33:25.396Z,22.30
2018-09-27T18:35:52.849Z,22.30
2018-09-27T18:38:20.362Z,22.30
2018-09-27T18:40:47.778Z,22.20
2018-09-27T18:43:15.357Z,22.10
2018-09-27T18:45:42.739Z,22.10
2018-09-27T18:48:10.199Z,22.10
2018-09-27T18:50:37.618Z,22.00
2018-09-27T18:53:05.116Z,22.00
2018-09-27T18:55:32.542Z,21.90
2018-09-27T18:57:59.978Z,21.90
2018-09-27T19:00:27.441Z,21.80
2018-09-27T19:02:54.888Z,21.80
2018-09-27T19:05:22.342Z,21.70
2018-09-27T19:07:49.766Z,21.70
2018-09-27T19:10:17.236Z,21.60
2018-09-27T19:12:44.681Z,21.60
2018-09-27T19:15:12.099Z,21.50
2018-09-27T19:17:39.520Z,21.50
2018-09-27T19:20:07.118Z,21.40
2018-09-27T19:22:34.587Z,21.40
2018-09-27T19:25:02.004Z,21.30
2018-09-27T19:27:29.442Z,21.30
2018-09-27T19:29:56.878Z,21.20
2018-09-27T19:32:24.366Z,21.20
2018-09-27T19:34:51.802Z,21.20
2018-09-27T19:37:19.322Z,21.10
2018-09-27T19:39:46.747Z,21.10
2018-09-27T19:42:14.196Z,21.00
2018-09-27T19:44:42.153Z,21.00
2018-09-27T19:47:09.600Z,20.90
2018-09-27T19:49:37.083Z,20.90
2018-09-27T19:52:04.609Z,20.80
2018-09-27T19:54:32.044Z,20.80
2018-09-27T19:56:59.452Z,20.80
2018-09-27T19:59:26.904Z,20.70
2018-09-27T20:01:54.323Z,20.60
2018-09-27T20:04:21.791Z,20.60
2018-09-27T20:06:49.217Z,20.60
2018-09-27T20:09:16.696Z,20.50
2018-09-27T20:11:44.126Z,20.40
2018-09-27T20:14:11.964Z,20.50
2018-09-27T20:16:39.768Z,20.40
2018-09-27T20:19:07.775Z,20.40
2018-09-27T20:21:35.280Z,20.30
2018-09-27T20:24:02.699Z,20.30
2018-09-27T20:26:30.219Z,20.20
2018-09-27T20:28:57.650Z,20.20
2018-09-27T20:31:25.062Z,20.10
2018-09-27T20:33:52.511Z,20.10
2018-09-27T20:36:19.993Z,20.00
2018-09-27T20:38:47.455Z,19.90
2018-09-27T20:41:14.896Z,20.00
2018-09-27T20:43:42.313Z,19.90
2018-09-27T20:46:09.765Z,19.90
2018-09-27T20:48:37.181Z,19.80
2018-09-27T20:51:04.616Z,19.80
2018-09-27T20:53:32.094Z,19.70
2018-09-27T20:55:59.540Z,19.70
2018-09-27T20:58:26.985Z,19.70
2018-09-27T21:00:54.421Z,19.60
2018-09-27T21:03:21.847Z,19.60
2018-09-27T21:05:49.273Z,19.50
2018-09-27T21:08:16.747Z,19.50
2018-09-27T21:10:44.154Z,19.50
2018-09-27T21:13:11.622Z,19.40
2018-09-27T21:15:39.069Z,19.40
2018-09-27T21:18:06.547Z,19.40
2018-09-27T21:20:34.002Z,19.30
2018-09-27T21:23:01.409Z,19.30
2018-09-27T21:25:28.851Z,19.30
2018-09-27T21:27:56.320Z,19.20
2018-09-27T21:30:23.796Z,19.20
2018-09-27T21:32:51.219Z,19.20
2018-09-27T21:35:18.658Z,19.10
2018-09-27T21:37:46.070Z,19.10
2018-09-27T21:40:13.490Z,19.10
2018-09-27T21:42:40.939Z,19.00
2018-09-27T21:45:08.438Z,19.00
2018-09-27T21:47:35.898Z,18.90
2018-09-27T21:50:03.478Z,18.90
2018-09-27T21:52:30.833Z,18.90
2018-09-27T21:54:58.242Z,18.90
2018-09-27T21:57:25.724Z,18.80
2018-09-27T21:59:53.948Z,18.80
2018-09-27T22:02:21.408Z,18.70
2018-09-27T22:04:48.826Z,18.70
2018-09-27T22:07:16.246Z,18.70
2018-09-27T22:09:43.648Z,18.70
2018-09-27T22:12:11.140Z,18.60
2018-09-27T22:14:38.578Z,18.60
2018-09-27T22:17:06.024Z,18.60
2018-09-27T22:19:33.456Z,18.50
2018-09-27T22:22:00.923Z,18.50
2018-09-27T22:24:28.326Z,18.50
2018-09-27T22:26:55.790Z,18.50
2018-09-27T22:29:23.234Z,18.40
2018-09-27T22:31:50.687Z,18.40
2018-09-27T22:34:18.076Z,18.40
2018-09-27T22:36:45.480Z,18.30
2018-09-27T22:39:12.897Z,18.30
2018-09-27T22:41:40.312Z,18.30
2018-09-27T22:44:07.774Z,18.30
2018-09-27T22:46:35.191Z,18.20
2018-09-27T22:49:02.637Z,18.20
2018-09-27T22:51:30.070Z,18.10
2018-09-27T22:53:57.494Z,18.10
2018-09-27T22:56:24.892Z,18.10
2018-09-27T22:58:52.342Z,18.00
2018-09-27T23:01:19.765Z,18.00
2018-09-27T23:03:47.169Z,18.00
2018-09-27T23:06:14.609Z,17.90
2018-09-27T23:08:41.985Z,17.90
2018-09-27T23:11:09.443Z,17.90
2018-09-27T23:13:36.877Z,17.90
2018-09-27T23:16:04.319Z,17.90
2018-09-27T23:18:31.769Z,17.80
2018-09-27T23:20:59.233Z,17.80
2018-09-27T23:23:26.738Z,17.80
2018-09-27T23:25:54.125Z,17.80
2018-09-27T23:28:21.527Z,17.80
2018-09-27T23:30:48.993Z,17.90
2018-09-27T23:33:16.403Z,17.80
2018-09-27T23:35:43.842Z,17.80
2018-09-27T23:38:11.259Z,17.80
2018-09-27T23:40:38.667Z,17.80
2018-09-27T23:43:06.149Z,17.80
2018-09-27T23:45:33.555Z,17.80
2018-09-27T23:48:08.462Z,17.80
2018-09-27T23:50:35.897Z,17.80
2018-09-27T23:53:03.333Z,17.80
2018-09-27T23:55:30.761Z,17.80
2018-09-27T23:57:58.185Z,17.70
